sensor_id;sensor_type;location;lat;lon;timestamp;temperature;humidity
17080;DHT22;8655;57.106;-2.088;2023-07-02T00:01:49;20.80;60.40
17080;DHT22;8655;57.106;-2.088;2023-07-02T00:04:15;20.80;60.50
17080;DHT22;8655;57.106;-2.088;2023-07-02T00:06:45;20.80;61.20
17080;DHT22;8655;57.106;-2.088;2023-07-02T00:09:12;20.80;60.40
17080;DHT22;8655;57.106;-2.088;2023-07-02T00:11:42;20.80;60.40
17080;DHT22;8655;57.106;-2.088;2023-07-02T00:14:09;20.80;60.40
17080;DHT22;8655;57.106;-2.088;2023-07-02T00:16:41;20.80;60.40
17080;DHT22;8655;57.106;-2.088;2023-07-02T00:19:07;20.80;60.40
17080;DHT22;8655;57.106;-2.088;2023-07-02T00:21:33;20.80;60.40
17080;DHT22;8655;57.106;-2.088;2023-07-02T00:23:59;20.80;60.40
17080;DHT22;8655;57.106;-2.088;2023-07-02T00:26:27;20.80;60.40
17080;DHT22;8655;57.106;-2.088;2023-07-02T00:28:56;20.80;60.40
17080;DHT22;8655;57.106;-2.088;2023-07-02T00:31:23;20.80;60.40
17080;DHT22;8655;57.106;-2.088;2023-07-02T00:33:49;20.80;60.40
17080;DHT22;8655;57.106;-2.088;2023-07-02T00:36:15;20.80;60.40
17080;DHT22;8655;57.106;-2.088;2023-07-02T00:38:42;20.80;60.40
17080;DHT22;8655;57.106;-2.088;2023-07-02T00:41:10;20.80;60.40
17080;DHT22;8655;57.106;-2.088;2023-07-02T00:43:36;20.80;60.40
17080;DHT22;8655;57.106;-2.088;2023-07-02T00:46:01;20.80;60.40
17080;DHT22;8655;57.106;-2.088;2023-07-02T00:48:29;20.80;60.40
17080;DHT22;8655;57.106;-2.088;2023-07-02T00:50:55;20.80;60.40
17080;DHT22;8655;57.106;-2.088;2023-07-02T00:53:21;20.80;60.40
17080;DHT22;8655;57.106;-2.088;2023-07-02T00:55:47;20.70;60.30
17080;DHT22;8655;57.106;-2.088;2023-07-02T00:58:12;20.70;60.30
17080;DHT22;8655;57.106;-2.088;2023-07-02T01:00:41;20.70;60.30
17080;DHT22;8655;57.106;-2.088;2023-07-02T01:03:07;20.70;60.30
17080;DHT22;8655;57.106;-2.088;2023-07-02T01:05:33;20.80;60.40
17080;DHT22;8655;57.106;-2.088;2023-07-02T01:08:05;20.70;60.30
17080;DHT22;8655;57.106;-2.088;2023-07-02T01:10:31;20.70;60.30
17080;DHT22;8655;57.106;-2.088;2023-07-02T01:13:01;20.70;60.30
17080;DHT22;8655;57.106;-2.088;2023-07-02T01:15:28;20.70;60.30
17080;DHT22;8655;57.106;-2.088;2023-07-02T01:17:54;20.70;60.30
17080;DHT22;8655;57.106;-2.088;2023-07-02T01:20:21;20.70;60.30
17080;DHT22;8655;57.106;-2.088;2023-07-02T01:22:48;20.70;60.30
17080;DHT22;8655;57.106;-2.088;2023-07-02T01:25:17;20.70;60.30
17080;DHT22;8655;57.106;-2.088;2023-07-02T01:27:43;20.70;61.00
17080;DHT22;8655;57.106;-2.088;2023-07-02T01:30:09;20.70;60.30
17080;DHT22;8655;57.106;-2.088;2023-07-02T01:32:36;20.70;60.30
17080;DHT22;8655;57.106;-2.088;2023-07-02T01:35:02;20.70;60.30
17080;DHT22;8655;57.106;-2.088;2023-07-02T01:37:28;20.70;60.30
17080;DHT22;8655;57.106;-2.088;2023-07-02T01:39:54;20.70;60.30
17080;DHT22;8655;57.106;-2.088;2023-07-02T01:42:20;20.70;60.30
17080;DHT22;8655;57.106;-2.088;2023-07-02T01:44:47;20.70;60.30
17080;DHT22;8655;57.106;-2.088;2023-07-02T01:47:13;20.70;60.20
17080;DHT22;8655;57.106;-2.088;2023-07-02T01:49:39;20.70;60.30
17080;DHT22;8655;57.106;-2.088;2023-07-02T01:52:05;20.60;60.20
17080;DHT22;8655;57.106;-2.088;2023-07-02T01:54:33;20.70;60.20
17080;DHT22;8655;57.106;-2.088;2023-07-02T01:56:58;20.60;60.10
17080;DHT22;8655;57.106;-2.088;2023-07-02T01:59:25;20.70;60.30
17080;DHT22;8655;57.106;-2.088;2023-07-02T02:01:51;20.60;60.10
17080;DHT22;8655;57.106;-2.088;2023-07-02T02:04:17;20.60;60.20
17080;DHT22;8655;57.106;-2.088;2023-07-02T02:06:43;20.60;60.10
17080;DHT22;8655;57.106;-2.088;2023-07-02T02:09:09;20.60;60.10
17080;DHT22;8655;57.106;-2.088;2023-07-02T02:11:41;20.60;60.20
17080;DHT22;8655;57.106;-2.088;2023-07-02T02:14:07;20.60;60.10
17080;DHT22;8655;57.106;-2.088;2023-07-02T02:16:33;20.60;60.10
17080;DHT22;8655;57.106;-2.088;2023-07-02T02:19:02;20.60;60.10
17080;DHT22;8655;57.106;-2.088;2023-07-02T02:21:28;20.60;60.10
17080;DHT22;8655;57.106;-2.088;2023-07-02T02:23:54;20.60;60.90
17080;DHT22;8655;57.106;-2.088;2023-07-02T02:26:20;20.60;60.20
17080;DHT22;8655;57.106;-2.088;2023-07-02T02:28:47;20.60;60.10
17080;DHT22;8655;57.106;-2.088;2023-07-02T02:31:14;20.60;60.10
17080;DHT22;8655;57.106;-2.088;2023-07-02T02:33:40;20.60;60.10
17080;DHT22;8655;57.106;-2.088;2023-07-02T02:36:05;20.60;60.10
17080;DHT22;8655;57.106;-2.088;2023-07-02T02:38:31;20.60;60.10
17080;DHT22;8655;57.106;-2.088;2023-07-02T02:40:57;20.50;60.00
17080;DHT22;8655;57.106;-2.088;2023-07-02T02:43:22;20.50;60.00
17080;DHT22;8655;57.106;-2.088;2023-07-02T02:45:48;20.60;60.10
17080;DHT22;8655;57.106;-2.088;2023-07-02T02:48:14;20.50;60.00
17080;DHT22;8655;57.106;-2.088;2023-07-02T02:50:39;20.50;60.00
17080;DHT22;8655;57.106;-2.088;2023-07-02T02:55:43;20.50;60.00
17080;DHT22;8655;57.106;-2.088;2023-07-02T02:58:09;20.60;60.10
17080;DHT22;8655;57.106;-2.088;2023-07-02T03:00:35;20.50;60.00
17080;DHT22;8655;57.106;-2.088;2023-07-02T03:03:01;20.60;60.00
17080;DHT22;8655;57.106;-2.088;2023-07-02T03:05:28;20.50;60.00
17080;DHT22;8655;57.106;-2.088;2023-07-02T03:07:53;20.50;60.00
17080;DHT22;8655;57.106;-2.088;2023-07-02T03:10:19;20.50;60.00
17080;DHT22;8655;57.106;-2.088;2023-07-02T03:12:47;20.50;60.00
17080;DHT22;8655;57.106;-2.088;2023-07-02T03:15:12;20.50;60.00
17080;DHT22;8655;57.106;-2.088;2023-07-02T03:17:38;20.50;60.00
17080;DHT22;8655;57.106;-2.088;2023-07-02T03:20:04;20.50;60.00
17080;DHT22;8655;57.106;-2.088;2023-07-02T03:22:31;20.50;60.00
17080;DHT22;8655;57.106;-2.088;2023-07-02T03:24:57;20.50;60.00
17080;DHT22;8655;57.106;-2.088;2023-07-02T03:27:22;20.50;59.90
17080;DHT22;8655;57.106;-2.088;2023-07-02T03:29:48;20.50;60.00
17080;DHT22;8655;57.106;-2.088;2023-07-02T03:32:14;20.50;59.90
17080;DHT22;8655;57.106;-2.088;2023-07-02T03:34:39;20.50;59.90
17080;DHT22;8655;57.106;-2.088;2023-07-02T03:37:07;20.50;60.00
17080;DHT22;8655;57.106;-2.088;2023-07-02T03:39:33;20.50;59.90
17080;DHT22;8655;57.106;-2.088;2023-07-02T03:41:58;20.50;59.90
17080;DHT22;8655;57.106;-2.088;2023-07-02T03:44:24;20.40;59.80
17080;DHT22;8655;57.106;-2.088;2023-07-02T03:46:49;20.40;59.80
17080;DHT22;8655;57.106;-2.088;2023-07-02T03:49:15;20.40;59.80
17080;DHT22;8655;57.106;-2.088;2023-07-02T03:51:41;20.40;59.80
17080;DHT22;8655;57.106;-2.088;2023-07-02T03:54:06;20.40;59.80
17080;DHT22;8655;57.106;-2.088;2023-07-02T03:56:32;20.40;59.80
17080;DHT22;8655;57.106;-2.088;2023-07-02T03:58:58;20.40;59.80
17080;DHT22;8655;57.106;-2.088;2023-07-02T04:01:23;20.40;59.80
17080;DHT22;8655;57.106;-2.088;2023-07-02T04:03:51;20.40;59.80
17080;DHT22;8655;57.106;-2.088;2023-07-02T04:06:17;20.40;59.80
17080;DHT22;8655;57.106;-2.088;2023-07-02T04:08:43;20.40;59.80
17080;DHT22;8655;57.106;-2.088;2023-07-02T04:11:10;20.40;59.80
17080;DHT22;8655;57.106;-2.088;2023-07-02T04:13:36;20.40;59.80
17080;DHT22;8655;57.106;-2.088;2023-07-02T04:16:02;20.40;59.80
17080;DHT22;8655;57.106;-2.088;2023-07-02T04:18:28;20.40;59.80
17080;DHT22;8655;57.106;-2.088;2023-07-02T04:20:55;20.40;59.80
17080;DHT22;8655;57.106;-2.088;2023-07-02T04:23:21;20.40;59.80
17080;DHT22;8655;57.106;-2.088;2023-07-02T04:25:46;20.40;59.70
17080;DHT22;8655;57.106;-2.088;2023-07-02T04:28:12;20.40;59.70
17080;DHT22;8655;57.106;-2.088;2023-07-02T04:30:38;20.30;59.70
17080;DHT22;8655;57.106;-2.088;2023-07-02T04:33:04;20.40;59.70
17080;DHT22;8655;57.106;-2.088;2023-07-02T04:35:31;20.40;59.70
17080;DHT22;8655;57.106;-2.088;2023-07-02T04:37:57;20.30;59.60
17080;DHT22;8655;57.106;-2.088;2023-07-02T04:40:23;20.30;59.60
17080;DHT22;8655;57.106;-2.088;2023-07-02T04:42:49;20.30;59.60
17080;DHT22;8655;57.106;-2.088;2023-07-02T04:45:23;20.30;59.60
17080;DHT22;8655;57.106;-2.088;2023-07-02T04:47:49;20.30;59.60
17080;DHT22;8655;57.106;-2.088;2023-07-02T04:50:15;20.30;59.60
17080;DHT22;8655;57.106;-2.088;2023-07-02T04:52:41;20.30;59.60
17080;DHT22;8655;57.106;-2.088;2023-07-02T04:55:07;20.30;59.60
17080;DHT22;8655;57.106;-2.088;2023-07-02T04:57:32;20.30;59.60
17080;DHT22;8655;57.106;-2.088;2023-07-02T04:59:58;20.30;59.60
17080;DHT22;8655;57.106;-2.088;2023-07-02T05:02:24;20.30;59.60
17080;DHT22;8655;57.106;-2.088;2023-07-02T05:04:50;20.30;59.60
17080;DHT22;8655;57.106;-2.088;2023-07-02T05:07:16;20.30;59.60
17080;DHT22;8655;57.106;-2.088;2023-07-02T05:09:42;20.30;59.60
17080;DHT22;8655;57.106;-2.088;2023-07-02T05:12:08;20.30;59.60
17080;DHT22;8655;57.106;-2.088;2023-07-02T05:14:33;20.30;59.60
17080;DHT22;8655;57.106;-2.088;2023-07-02T05:16:59;20.30;59.60
17080;DHT22;8655;57.106;-2.088;2023-07-02T05:19:25;20.30;59.60
17080;DHT22;8655;57.106;-2.088;2023-07-02T05:21:50;20.30;59.60
17080;DHT22;8655;57.106;-2.088;2023-07-02T05:24:16;20.30;59.60
17080;DHT22;8655;57.106;-2.088;2023-07-02T05:26:42;20.30;59.60
17080;DHT22;8655;57.106;-2.088;2023-07-02T05:29:07;20.30;59.50
17080;DHT22;8655;57.106;-2.088;2023-07-02T05:31:33;20.30;59.50
17080;DHT22;8655;57.106;-2.088;2023-07-02T05:33:59;20.30;59.50
17080;DHT22;8655;57.106;-2.088;2023-07-02T05:36:25;20.30;59.50
17080;DHT22;8655;57.106;-2.088;2023-07-02T05:38:51;20.20;59.40
17080;DHT22;8655;57.106;-2.088;2023-07-02T05:41:23;20.20;59.40
17080;DHT22;8655;57.106;-2.088;2023-07-02T05:43:49;20.20;59.40
17080;DHT22;8655;57.106;-2.088;2023-07-02T05:46:15;20.20;59.50
17080;DHT22;8655;57.106;-2.088;2023-07-02T05:48:41;20.20;59.40
17080;DHT22;8655;57.106;-2.088;2023-07-02T05:51:07;20.20;59.40
17080;DHT22;8655;57.106;-2.088;2023-07-02T05:53:33;20.20;59.40
17080;DHT22;8655;57.106;-2.088;2023-07-02T05:55:59;20.20;59.40
17080;DHT22;8655;57.106;-2.088;2023-07-02T05:58:25;20.20;59.40
17080;DHT22;8655;57.106;-2.088;2023-07-02T06:00:50;20.20;59.40
17080;DHT22;8655;57.106;-2.088;2023-07-02T06:03:18;20.20;59.40
17080;DHT22;8655;57.106;-2.088;2023-07-02T06:05:50;20.20;59.40
17080;DHT22;8655;57.106;-2.088;2023-07-02T06:08:17;20.20;59.40
17080;DHT22;8655;57.106;-2.088;2023-07-02T06:10:46;20.20;59.40
17080;DHT22;8655;57.106;-2.088;2023-07-02T06:13:12;20.20;59.40
17080;DHT22;8655;57.106;-2.088;2023-07-02T06:15:38;20.20;59.40
17080;DHT22;8655;57.106;-2.088;2023-07-02T06:18:04;20.20;59.40
17080;DHT22;8655;57.106;-2.088;2023-07-02T06:20:30;20.20;59.40
17080;DHT22;8655;57.106;-2.088;2023-07-02T06:22:55;20.20;59.40
17080;DHT22;8655;57.106;-2.088;2023-07-02T06:25:21;20.20;59.40
17080;DHT22;8655;57.106;-2.088;2023-07-02T06:27:47;20.20;59.40
17080;DHT22;8655;57.106;-2.088;2023-07-02T06:30:13;20.20;59.40
17080;DHT22;8655;57.106;-2.088;2023-07-02T06:32:38;20.20;59.40
17080;DHT22;8655;57.106;-2.088;2023-07-02T06:35:04;20.20;59.40
17080;DHT22;8655;57.106;-2.088;2023-07-02T06:37:34;20.10;59.20
17080;DHT22;8655;57.106;-2.088;2023-07-02T06:39:59;20.10;59.20
17080;DHT22;8655;57.106;-2.088;2023-07-02T06:42:25;20.10;59.20
17080;DHT22;8655;57.106;-2.088;2023-07-02T06:44:51;20.10;59.20
17080;DHT22;8655;57.106;-2.088;2023-07-02T06:47:17;20.10;59.20
17080;DHT22;8655;57.106;-2.088;2023-07-02T06:49:43;20.10;59.20
17080;DHT22;8655;57.106;-2.088;2023-07-02T06:52:09;20.10;59.20
17080;DHT22;8655;57.106;-2.088;2023-07-02T06:54:34;20.10;59.20
17080;DHT22;8655;57.106;-2.088;2023-07-02T06:57:00;20.10;59.20
17080;DHT22;8655;57.106;-2.088;2023-07-02T06:59:26;20.10;59.20
17080;DHT22;8655;57.106;-2.088;2023-07-02T07:01:52;20.10;59.20
17080;DHT22;8655;57.106;-2.088;2023-07-02T07:04:18;20.10;59.20
17080;DHT22;8655;57.106;-2.088;2023-07-02T07:06:44;20.10;59.20
17080;DHT22;8655;57.106;-2.088;2023-07-02T07:09:10;20.10;59.20
17080;DHT22;8655;57.106;-2.088;2023-07-02T07:11:35;20.10;59.20
17080;DHT22;8655;57.106;-2.088;2023-07-02T07:14:01;20.10;59.20
17080;DHT22;8655;57.106;-2.088;2023-07-02T07:16:27;20.10;59.20
17080;DHT22;8655;57.106;-2.088;2023-07-02T07:18:53;20.10;59.20
17080;DHT22;8655;57.106;-2.088;2023-07-02T07:21:19;20.10;59.20
17080;DHT22;8655;57.106;-2.088;2023-07-02T07:23:44;20.10;59.80
17080;DHT22;8655;57.106;-2.088;2023-07-02T07:26:10;20.10;59.10
17080;DHT22;8655;57.106;-2.088;2023-07-02T07:28:36;20.10;59.10
17080;DHT22;8655;57.106;-2.088;2023-07-02T07:31:01;20.10;59.10
17080;DHT22;8655;57.106;-2.088;2023-07-02T07:33:27;20.10;59.10
17080;DHT22;8655;57.106;-2.088;2023-07-02T07:35:53;20.10;59.10
17080;DHT22;8655;57.106;-2.088;2023-07-02T07:38:19;20.10;59.10
17080;DHT22;8655;57.106;-2.088;2023-07-02T07:40:45;20.10;59.10
17080;DHT22;8655;57.106;-2.088;2023-07-02T07:43:11;20.10;59.10
17080;DHT22;8655;57.106;-2.088;2023-07-02T07:45:37;20.10;59.10
17080;DHT22;8655;57.106;-2.088;2023-07-02T07:48:04;20.10;59.10
17080;DHT22;8655;57.106;-2.088;2023-07-02T07:50:30;20.10;59.10
17080;DHT22;8655;57.106;-2.088;2023-07-02T07:52:55;20.10;59.10
17080;DHT22;8655;57.106;-2.088;2023-07-02T07:55:21;20.10;59.10
17080;DHT22;8655;57.106;-2.088;2023-07-02T07:57:47;20.10;59.10
17080;DHT22;8655;57.106;-2.088;2023-07-02T08:00:13;20.10;59.10
17080;DHT22;8655;57.106;-2.088;2023-07-02T08:02:39;20.10;59.00
17080;DHT22;8655;57.106;-2.088;2023-07-02T08:05:05;20.10;59.00
17080;DHT22;8655;57.106;-2.088;2023-07-02T08:07:31;20.10;59.00
17080;DHT22;8655;57.106;-2.088;2023-07-02T08:09:58;20.00;58.90
17080;DHT22;8655;57.106;-2.088;2023-07-02T08:12:23;20.10;59.00
17080;DHT22;8655;57.106;-2.088;2023-07-02T08:14:49;20.10;59.00
17080;DHT22;8655;57.106;-2.088;2023-07-02T08:17:15;20.10;59.00
17080;DHT22;8655;57.106;-2.088;2023-07-02T08:19:41;20.10;59.00
17080;DHT22;8655;57.106;-2.088;2023-07-02T08:22:06;20.00;58.90
17080;DHT22;8655;57.106;-2.088;2023-07-02T08:24:32;20.00;58.90
17080;DHT22;8655;57.106;-2.088;2023-07-02T08:26:59;20.00;58.90
17080;DHT22;8655;57.106;-2.088;2023-07-02T08:29:24;20.10;58.90
17080;DHT22;8655;57.106;-2.088;2023-07-02T08:31:50;20.10;58.90
17080;DHT22;8655;57.106;-2.088;2023-07-02T08:34:16;20.10;58.90
17080;DHT22;8655;57.106;-2.088;2023-07-02T08:36:41;20.00;58.80
17080;DHT22;8655;57.106;-2.088;2023-07-02T08:39:09;20.00;58.80
17080;DHT22;8655;57.106;-2.088;2023-07-02T08:41:44;20.10;58.90
17080;DHT22;8655;57.106;-2.088;2023-07-02T08:44:12;20.00;58.80
17080;DHT22;8655;57.106;-2.088;2023-07-02T08:46:42;20.10;58.90
17080;DHT22;8655;57.106;-2.088;2023-07-02T08:49:08;20.00;58.80
17080;DHT22;8655;57.106;-2.088;2023-07-02T08:51:34;20.00;58.80
17080;DHT22;8655;57.106;-2.088;2023-07-02T08:54:01;20.00;58.80
17080;DHT22;8655;57.106;-2.088;2023-07-02T08:56:26;20.10;58.90
17080;DHT22;8655;57.106;-2.088;2023-07-02T08:58:52;20.00;58.80
17080;DHT22;8655;57.106;-2.088;2023-07-02T09:01:19;20.10;58.80
17080;DHT22;8655;57.106;-2.088;2023-07-02T09:03:45;20.10;58.80
17080;DHT22;8655;57.106;-2.088;2023-07-02T09:06:11;20.10;58.90
17080;DHT22;8655;57.106;-2.088;2023-07-02T09:08:38;20.00;58.70
17080;DHT22;8655;57.106;-2.088;2023-07-02T09:11:11;20.10;58.80
17080;DHT22;8655;57.106;-2.088;2023-07-02T09:19:07;20.10;58.80
17080;DHT22;8655;57.106;-2.088;2023-07-02T09:21:45;20.10;58.80
17080;DHT22;8655;57.106;-2.088;2023-07-02T09:24:22;20.10;58.80
17080;DHT22;8655;57.106;-2.088;2023-07-02T09:26:51;20.10;58.80
17080;DHT22;8655;57.106;-2.088;2023-07-02T09:29:28;20.10;58.80
17080;DHT22;8655;57.106;-2.088;2023-07-02T09:31:55;20.10;58.70
17080;DHT22;8655;57.106;-2.088;2023-07-02T09:34:27;20.30;59.00
17080;DHT22;8655;57.106;-2.088;2023-07-02T09:36:54;20.10;58.80
17080;DHT22;8655;57.106;-2.088;2023-07-02T09:39:25;20.10;58.80
17080;DHT22;8655;57.106;-2.088;2023-07-02T09:41:51;20.10;58.70
17080;DHT22;8655;57.106;-2.088;2023-07-02T09:44:18;20.10;58.70
17080;DHT22;8655;57.106;-2.088;2023-07-02T09:47:04;20.10;58.70
17080;DHT22;8655;57.106;-2.088;2023-07-02T09:54:32;20.10;58.70
17080;DHT22;8655;57.106;-2.088;2023-07-02T09:57:01;20.10;58.70
17080;DHT22;8655;57.106;-2.088;2023-07-02T09:59:28;20.10;59.30
17080;DHT22;8655;57.106;-2.088;2023-07-02T10:01:55;20.10;58.70
17080;DHT22;8655;57.106;-2.088;2023-07-02T10:04:21;20.10;58.70
17080;DHT22;8655;57.106;-2.088;2023-07-02T10:06:54;20.10;58.70
17080;DHT22;8655;57.106;-2.088;2023-07-02T10:09:40;20.10;58.70
17080;DHT22;8655;57.106;-2.088;2023-07-02T10:12:20;20.10;58.70
17080;DHT22;8655;57.106;-2.088;2023-07-02T10:14:47;20.10;58.70
17080;DHT22;8655;57.106;-2.088;2023-07-02T10:17:34;20.10;58.70
17080;DHT22;8655;57.106;-2.088;2023-07-02T10:20:02;20.10;58.70
17080;DHT22;8655;57.106;-2.088;2023-07-02T10:22:46;20.10;58.70
17080;DHT22;8655;57.106;-2.088;2023-07-02T10:25:27;20.10;58.70
17080;DHT22;8655;57.106;-2.088;2023-07-02T10:27:53;20.10;58.70
17080;DHT22;8655;57.106;-2.088;2023-07-02T10:30:29;20.10;58.70
17080;DHT22;8655;57.106;-2.088;2023-07-02T10:33:07;20.10;58.70
17080;DHT22;8655;57.106;-2.088;2023-07-02T10:35:33;20.20;58.70
17080;DHT22;8655;57.106;-2.088;2023-07-02T10:38:00;20.20;58.70
17080;DHT22;8655;57.106;-2.088;2023-07-02T10:40:25;20.20;58.70
17080;DHT22;8655;57.106;-2.088;2023-07-02T10:42:52;20.20;58.70
17080;DHT22;8655;57.106;-2.088;2023-07-02T10:45:19;20.20;58.70
17080;DHT22;8655;57.106;-2.088;2023-07-02T10:47:45;20.20;58.70
17080;DHT22;8655;57.106;-2.088;2023-07-02T10:52:41;20.20;58.70
17080;DHT22;8655;57.106;-2.088;2023-07-02T10:55:07;20.20;59.00
17080;DHT22;8655;57.106;-2.088;2023-07-02T10:57:33;20.20;58.70
17080;DHT22;8655;57.106;-2.088;2023-07-02T11:00:06;20.20;58.70
17080;DHT22;8655;57.106;-2.088;2023-07-02T11:02:40;20.20;58.70
17080;DHT22;8655;57.106;-2.088;2023-07-02T11:05:06;20.20;58.70
17080;DHT22;8655;57.106;-2.088;2023-07-02T11:07:33;20.20;58.60
17080;DHT22;8655;57.106;-2.088;2023-07-02T11:09:58;20.20;58.60
17080;DHT22;8655;57.106;-2.088;2023-07-02T11:12:28;20.20;58.60
17080;DHT22;8655;57.106;-2.088;2023-07-02T11:14:54;20.20;58.60
17080;DHT22;8655;57.106;-2.088;2023-07-02T11:17:25;20.20;58.60
17080;DHT22;8655;57.106;-2.088;2023-07-02T11:19:51;20.20;58.50
17080;DHT22;8655;57.106;-2.088;2023-07-02T11:22:17;20.20;58.60
17080;DHT22;8655;57.106;-2.088;2023-07-02T11:24:43;20.20;58.60
17080;DHT22;8655;57.106;-2.088;2023-07-02T11:27:08;20.20;58.70
17080;DHT22;8655;57.106;-2.088;2023-07-02T11:29:35;20.30;58.70
17080;DHT22;8655;57.106;-2.088;2023-07-02T11:32:11;20.30;58.70
17080;DHT22;8655;57.106;-2.088;2023-07-02T11:34:38;20.30;58.70
17080;DHT22;8655;57.106;-2.088;2023-07-02T11:37:05;20.30;58.90
17080;DHT22;8655;57.106;-2.088;2023-07-02T11:39:31;20.30;58.80
17080;DHT22;8655;57.106;-2.088;2023-07-02T11:41:57;20.30;58.80
17080;DHT22;8655;57.106;-2.088;2023-07-02T11:44:23;20.30;58.70
17080;DHT22;8655;57.106;-2.088;2023-07-02T11:46:49;20.30;58.80
17080;DHT22;8655;57.106;-2.088;2023-07-02T11:49:15;20.30;58.70
17080;DHT22;8655;57.106;-2.088;2023-07-02T11:51:42;20.30;58.70
17080;DHT22;8655;57.106;-2.088;2023-07-02T11:54:13;20.30;58.70
17080;DHT22;8655;57.106;-2.088;2023-07-02T11:56:39;20.30;58.70
17080;DHT22;8655;57.106;-2.088;2023-07-02T11:59:07;20.40;58.80
17080;DHT22;8655;57.106;-2.088;2023-07-02T12:01:33;20.40;58.80
17080;DHT22;8655;57.106;-2.088;2023-07-02T12:03:59;20.50;58.80
17080;DHT22;8655;57.106;-2.088;2023-07-02T12:06:24;20.40;58.70
17080;DHT22;8655;57.106;-2.088;2023-07-02T12:08:50;20.40;58.70
17080;DHT22;8655;57.106;-2.088;2023-07-02T12:11:16;20.40;58.70
17080;DHT22;8655;57.106;-2.088;2023-07-02T12:13:41;20.40;58.70
17080;DHT22;8655;57.106;-2.088;2023-07-02T12:16:07;20.40;58.70
17080;DHT22;8655;57.106;-2.088;2023-07-02T12:18:33;20.40;58.70
17080;DHT22;8655;57.106;-2.088;2023-07-02T12:20:59;20.40;58.70
17080;DHT22;8655;57.106;-2.088;2023-07-02T12:23:24;20.40;58.60
17080;DHT22;8655;57.106;-2.088;2023-07-02T12:25:50;20.40;58.60
17080;DHT22;8655;57.106;-2.088;2023-07-02T12:28:16;20.40;58.60
17080;DHT22;8655;57.106;-2.088;2023-07-02T12:30:42;20.40;58.60
17080;DHT22;8655;57.106;-2.088;2023-07-02T12:33:07;20.40;58.60
17080;DHT22;8655;57.106;-2.088;2023-07-02T12:35:33;20.40;58.60
17080;DHT22;8655;57.106;-2.088;2023-07-02T12:38:00;20.50;58.70
17080;DHT22;8655;57.106;-2.088;2023-07-02T12:40:26;20.50;58.70
17080;DHT22;8655;57.106;-2.088;2023-07-02T12:42:52;20.50;58.60
17080;DHT22;8655;57.106;-2.088;2023-07-02T12:45:18;20.50;58.70
17080;DHT22;8655;57.106;-2.088;2023-07-02T12:47:43;20.50;58.70
17080;DHT22;8655;57.106;-2.088;2023-07-02T12:50:10;20.50;58.70
17080;DHT22;8655;57.106;-2.088;2023-07-02T12:52:36;20.50;58.60
17080;DHT22;8655;57.106;-2.088;2023-07-02T12:55:01;20.50;58.60
17080;DHT22;8655;57.106;-2.088;2023-07-02T12:57:28;20.50;58.60
17080;DHT22;8655;57.106;-2.088;2023-07-02T12:59:54;20.50;58.60
17080;DHT22;8655;57.106;-2.088;2023-07-02T13:02:21;20.50;58.60
17080;DHT22;8655;57.106;-2.088;2023-07-02T13:04:47;20.50;58.50
17080;DHT22;8655;57.106;-2.088;2023-07-02T13:07:13;20.50;58.60
17080;DHT22;8655;57.106;-2.088;2023-07-02T13:09:39;20.50;58.50
17080;DHT22;8655;57.106;-2.088;2023-07-02T13:12:05;20.50;58.60
17080;DHT22;8655;57.106;-2.088;2023-07-02T13:14:31;20.50;58.50
17080;DHT22;8655;57.106;-2.088;2023-07-02T13:16:56;20.50;58.50
17080;DHT22;8655;57.106;-2.088;2023-07-02T13:19:24;20.50;58.50
17080;DHT22;8655;57.106;-2.088;2023-07-02T13:21:50;20.50;58.50
17080;DHT22;8655;57.106;-2.088;2023-07-02T13:24:16;20.50;58.50
17080;DHT22;8655;57.106;-2.088;2023-07-02T13:26:41;20.50;58.50
17080;DHT22;8655;57.106;-2.088;2023-07-02T13:29:07;20.50;58.50
17080;DHT22;8655;57.106;-2.088;2023-07-02T13:31:32;20.50;58.50
17080;DHT22;8655;57.106;-2.088;2023-07-02T13:33:58;20.50;58.40
17080;DHT22;8655;57.106;-2.088;2023-07-02T13:36:24;20.50;58.50
17080;DHT22;8655;57.106;-2.088;2023-07-02T13:38:49;20.50;58.50
17080;DHT22;8655;57.106;-2.088;2023-07-02T13:41:15;20.60;58.60
17080;DHT22;8655;57.106;-2.088;2023-07-02T13:43:41;20.60;58.60
17080;DHT22;8655;57.106;-2.088;2023-07-02T13:46:07;20.60;58.60
17080;DHT22;8655;57.106;-2.088;2023-07-02T13:48:32;20.60;58.60
17080;DHT22;8655;57.106;-2.088;2023-07-02T13:50:58;20.60;58.60
17080;DHT22;8655;57.106;-2.088;2023-07-02T13:53:24;20.60;58.60
17080;DHT22;8655;57.106;-2.088;2023-07-02T13:55:49;20.60;58.60
17080;DHT22;8655;57.106;-2.088;2023-07-02T13:58:15;20.60;58.60
17080;DHT22;8655;57.106;-2.088;2023-07-02T14:00:40;20.60;58.60
17080;DHT22;8655;57.106;-2.088;2023-07-02T14:03:06;20.60;58.60
17080;DHT22;8655;57.106;-2.088;2023-07-02T14:05:32;20.60;58.60
17080;DHT22;8655;57.106;-2.088;2023-07-02T14:07:58;20.60;58.60
17080;DHT22;8655;57.106;-2.088;2023-07-02T14:10:24;20.60;58.60
17080;DHT22;8655;57.106;-2.088;2023-07-02T14:12:50;20.60;58.60
17080;DHT22;8655;57.106;-2.088;2023-07-02T14:15:15;20.60;58.60
17080;DHT22;8655;57.106;-2.088;2023-07-02T14:17:41;20.60;58.60
17080;DHT22;8655;57.106;-2.088;2023-07-02T14:20:08;20.60;58.60
17080;DHT22;8655;57.106;-2.088;2023-07-02T14:22:34;20.60;58.60
17080;DHT22;8655;57.106;-2.088;2023-07-02T14:24:59;20.60;58.50
17080;DHT22;8655;57.106;-2.088;2023-07-02T14:27:25;20.60;58.60
17080;DHT22;8655;57.106;-2.088;2023-07-02T14:29:51;20.60;58.60
17080;DHT22;8655;57.106;-2.088;2023-07-02T14:32:17;20.60;58.50
17080;DHT22;8655;57.106;-2.088;2023-07-02T14:34:42;20.60;58.60
17080;DHT22;8655;57.106;-2.088;2023-07-02T14:37:08;20.60;58.60
17080;DHT22;8655;57.106;-2.088;2023-07-02T14:39:34;20.60;58.60
17080;DHT22;8655;57.106;-2.088;2023-07-02T14:42:00;20.60;59.10
17080;DHT22;8655;57.106;-2.088;2023-07-02T14:44:25;20.60;58.60
17080;DHT22;8655;57.106;-2.088;2023-07-02T14:46:51;20.60;58.60
17080;DHT22;8655;57.106;-2.088;2023-07-02T14:49:17;20.60;58.60
17080;DHT22;8655;57.106;-2.088;2023-07-02T14:51:43;20.60;58.60
17080;DHT22;8655;57.106;-2.088;2023-07-02T14:54:10;20.70;58.70
17080;DHT22;8655;57.106;-2.088;2023-07-02T14:56:35;20.60;58.60
17080;DHT22;8655;57.106;-2.088;2023-07-02T14:59:03;20.70;58.70
17080;DHT22;8655;57.106;-2.088;2023-07-02T15:01:29;20.70;58.70
17080;DHT22;8655;57.106;-2.088;2023-07-02T15:03:55;20.70;58.70
17080;DHT22;8655;57.106;-2.088;2023-07-02T15:06:21;20.70;58.70
17080;DHT22;8655;57.106;-2.088;2023-07-02T15:08:47;20.70;58.70
17080;DHT22;8655;57.106;-2.088;2023-07-02T15:11:14;20.70;58.70
17080;DHT22;8655;57.106;-2.088;2023-07-02T15:13:40;20.70;58.70
17080;DHT22;8655;57.106;-2.088;2023-07-02T15:16:07;20.80;58.70
17080;DHT22;8655;57.106;-2.088;2023-07-02T15:18:33;20.70;58.60
17080;DHT22;8655;57.106;-2.088;2023-07-02T15:20:59;20.70;59.20
17080;DHT22;8655;57.106;-2.088;2023-07-02T15:23:26;20.70;58.60
17080;DHT22;8655;57.106;-2.088;2023-07-02T15:25:59;20.70;58.60
17080;DHT22;8655;57.106;-2.088;2023-07-02T15:28:27;20.70;58.60
17080;DHT22;8655;57.106;-2.088;2023-07-02T15:30:55;20.70;58.50
17080;DHT22;8655;57.106;-2.088;2023-07-02T15:33:22;20.70;58.60
17080;DHT22;8655;57.106;-2.088;2023-07-02T15:35:48;20.70;58.60
17080;DHT22;8655;57.106;-2.088;2023-07-02T15:38:14;20.70;58.50
17080;DHT22;8655;57.106;-2.088;2023-07-02T15:40:39;20.70;58.50
17080;DHT22;8655;57.106;-2.088;2023-07-02T15:43:05;20.70;58.60